Time;durP1;ratioP1;P1;durP2;ratioP2;P2;SDS_P1;SDS_P2;PMS_P1;PMS_P2;Temp;Humidity;BMP_temperature;BMP_pressure;BME280_temperature;BME280_humidity;BME280_pressure;Samples;Min_cycle;Max_cycle;Signal;HPM_P1;HPM_P2
2021/08/20 00:00:37;;;;;;;3.43;3.13;;;16.70;99.90;;;;;;483857;246;28743;-71
2021/08/20 00:02:38;;;;;;;3.33;3.03;;;16.70;99.90;;;;;;483838;246;28758;-72
2021/08/20 00:04:40;;;;;;;3.37;3.17;;;16.70;99.90;;;;;;483852;246;28680;-72
2021/08/20 00:06:41;;;;;;;3.40;3.10;;;16.70;99.90;;;;;;483834;246;28719;-72
2021/08/20 00:08:42;;;;;;;3.33;3.10;;;16.70;99.90;;;;;;483847;246;28720;-71
2021/08/20 00:10:43;;;;;;;3.50;3.20;;;16.70;99.90;;;;;;483854;246;28685;-71
2021/08/20 00:12:45;;;;;;;3.53;3.23;;;16.70;99.90;;;;;;483844;246;28802;-72
2021/08/20 00:14:46;;;;;;;3.67;3.37;;;16.70;99.90;;;;;;483838;246;29129;-71
2021/08/20 00:16:47;;;;;;;3.27;2.97;;;16.70;99.90;;;;;;483806;246;29215;-71
2021/08/20 00:18:48;;;;;;;4.43;3.57;;;16.70;99.90;;;;;;483838;246;29235;-71
2021/08/20 00:20:50;;;;;;;4.07;3.77;;;16.70;99.90;;;;;;483794;246;28693;-72
2021/08/20 00:22:51;;;;;;;3.90;3.60;;;16.70;99.90;;;;;;483772;246;28831;-72
2021/08/20 00:24:52;;;;;;;4.27;3.77;;;16.60;99.90;;;;;;483802;246;28701;-72
2021/08/20 00:26:53;;;;;;;3.43;3.17;;;16.60;99.90;;;;;;483809;246;28720;-72
2021/08/20 00:28:55;;;;;;;4.13;3.73;;;16.60;99.90;;;;;;483864;246;28721;-69
2021/08/20 00:30:56;;;;;;;4.43;4.03;;;16.60;99.90;;;;;;483855;246;28707;-72
2021/08/20 00:32:57;;;;;;;3.63;3.33;;;16.60;99.90;;;;;;483808;246;28808;-72
2021/08/20 00:34:58;;;;;;;3.80;3.50;;;16.60;99.90;;;;;;483841;246;28697;-72
2021/08/20 00:37:00;;;;;;;4.20;3.80;;;16.50;99.90;;;;;;483844;246;28728;-71
2021/08/20 00:39:01;;;;;;;3.40;3.10;;;16.60;99.90;;;;;;483852;246;29197;-71
2021/08/20 00:41:02;;;;;;;3.67;2.97;;;16.50;99.90;;;;;;483851;246;29216;-72
2021/08/20 00:43:03;;;;;;;4.20;3.30;;;16.60;99.90;;;;;;483856;246;29412;-71
2021/08/20 00:45:05;;;;;;;4.10;3.77;;;16.60;99.90;;;;;;483859;246;29250;-71
2021/08/20 00:47:06;;;;;;;3.50;3.20;;;16.60;99.90;;;;;;483846;246;28799;-72
2021/08/20 00:49:07;;;;;;;3.37;3.07;;;16.60;99.90;;;;;;483850;246;28724;-71
2021/08/20 00:51:08;;;;;;;3.60;3.30;;;16.50;99.90;;;;;;483831;246;28711;-70
2021/08/20 00:53:10;;;;;;;4.90;3.30;;;16.50;99.90;;;;;;483839;246;28716;-71
2021/08/20 00:55:13;;;;;;;3.50;3.20;;;16.50;99.90;;;;;;483882;246;28696;-70
2021/08/20 00:57:12;;;;;;;4.10;3.47;;;16.50;99.90;;;;;;483701;246;28745;-71
2021/08/20 00:59:13;;;;;;;3.50;3.20;;;16.50;99.90;;;;;;483878;246;29133;-70
2021/08/20 01:01:15;;;;;;;3.50;3.20;;;16.50;99.90;;;;;;483875;246;28786;-70
2021/08/20 01:03:16;;;;;;;3.80;3.40;;;16.60;99.90;;;;;;483864;246;29211;-72
2021/08/20 01:05:19;;;;;;;4.03;3.40;;;16.60;99.90;;;;;;483865;246;29211;-71
2021/08/20 01:07:18;;;;;;;4.77;3.53;;;16.60;99.90;;;;;;483740;246;29343;-72
2021/08/20 01:09:20;;;;;;;3.77;3.37;;;16.50;99.90;;;;;;483882;246;29207;-72
2021/08/20 01:11:21;;;;;;;4.10;3.70;;;16.50;99.90;;;;;;483756;246;28761;-72
2021/08/20 01:13:22;;;;;;;3.70;3.40;;;16.60;99.90;;;;;;483692;246;28708;-69
2021/08/20 01:15:23;;;;;;;4.10;3.70;;;16.50;99.90;;;;;;483866;246;28679;-69
2021/08/20 01:17:25;;;;;;;3.70;3.40;;;16.50;99.90;;;;;;483868;246;28758;-69
2021/08/20 01:19:27;;;;;;;4.00;3.70;;;16.50;99.90;;;;;;483886;246;28723;-70
2021/08/20 01:21:28;;;;;;;3.80;3.50;;;16.50;99.90;;;;;;483892;246;28716;-69
2021/08/20 01:23:29;;;;;;;4.40;3.20;;;16.50;99.90;;;;;;483854;246;28688;-69
2021/08/20 01:25:32;;;;;;;3.63;3.37;;;16.50;99.90;;;;;;483859;246;29337;-70
2021/08/20 01:27:33;;;;;;;3.63;3.33;;;16.40;99.90;;;;;;483785;246;29123;-69
2021/08/20 01:29:33;;;;;;;3.53;3.23;;;16.40;99.90;;;;;;483835;246;29191;-69
2021/08/20 01:31:34;;;;;;;3.80;3.50;;;16.50;99.90;;;;;;483863;246;29284;-70
2021/08/20 01:33:36;;;;;;;3.70;3.40;;;16.50;99.90;;;;;;483892;246;28767;-69
2021/08/20 01:35:37;;;;;;;3.83;3.53;;;16.50;99.90;;;;;;483872;246;28729;-70
2021/08/20 01:37:38;;;;;;;4.00;3.67;;;16.50;99.90;;;;;;483861;246;28775;-69
2021/08/20 01:39:39;;;;;;;3.73;3.43;;;16.50;99.90;;;;;;483864;246;28764;-69
2021/08/20 01:41:41;;;;;;;3.70;3.40;;;16.50;99.90;;;;;;483874;246;28745;-69
2021/08/20 01:43:42;;;;;;;3.50;3.20;;;16.50;99.90;;;;;;483860;246;28760;-71
2021/08/20 01:45:43;;;;;;;3.43;3.13;;;16.50;99.90;;;;;;483878;246;28749;-71
2021/08/20 01:47:44;;;;;;;4.10;3.70;;;16.40;99.90;;;;;;483879;246;28716;-72
2021/08/20 01:49:46;;;;;;;4.37;3.60;;;16.40;99.90;;;;;;483864;246;29151;-71
2021/08/20 01:51:47;;;;;;;3.67;3.37;;;16.40;99.90;;;;;;483859;246;29242;-70
2021/08/20 01:53:48;;;;;;;4.17;3.20;;;16.40;99.90;;;;;;483798;246;29229;-72
2021/08/20 01:55:49;;;;;;;3.97;3.57;;;16.40;99.90;;;;;;483889;246;29214;-72
2021/08/20 01:57:51;;;;;;;3.40;3.10;;;16.40;99.90;;;;;;483879;246;28720;-72
2021/08/20 01:59:52;;;;;;;4.03;3.63;;;16.40;99.90;;;;;;483761;246;28760;-73
2021/08/20 02:01:53;;;;;;;4.17;3.80;;;16.30;99.90;;;;;;483878;246;28791;-72
2021/08/20 02:03:54;;;;;;;3.73;3.43;;;16.30;99.90;;;;;;483881;246;28760;-71
2021/08/20 02:05:56;;;;;;;5.27;3.80;;;16.30;99.90;;;;;;483866;246;28719;-72
2021/08/20 02:07:57;;;;;;;4.03;3.73;;;16.30;99.90;;;;;;483904;246;28839;-70
2021/08/20 02:09:58;;;;;;;4.60;3.90;;;16.30;99.90;;;;;;483880;246;28802;-70
2021/08/20 02:11:59;;;;;;;4.80;4.10;;;16.30;99.90;;;;;;483870;246;28747;-71
2021/08/20 02:14:01;;;;;;;4.20;3.80;;;16.30;99.90;;;;;;483854;246;29144;-72
2021/08/20 02:16:02;;;;;;;4.40;3.67;;;16.30;99.90;;;;;;483838;246;29285;-71
2021/08/20 02:18:03;;;;;;;3.97;3.57;;;16.20;99.90;;;;;;483862;246;29950;-71
2021/08/20 02:20:04;;;;;;;3.80;3.40;;;16.20;99.90;;;;;;483855;246;29171;-71
2021/08/20 02:22:06;;;;;;;4.53;3.30;;;16.30;99.90;;;;;;483865;246;28736;-72
2021/08/20 02:24:07;;;;;;;3.80;3.50;;;16.20;99.90;;;;;;483857;246;28708;-71
2021/08/20 02:26:08;;;;;;;4.37;4.00;;;16.30;99.90;;;;;;483873;246;28719;-69
2021/08/20 02:28:09;;;;;;;3.50;3.20;;;16.20;99.90;;;;;;483861;246;28736;-71
2021/08/20 02:30:11;;;;;;;4.33;3.97;;;16.20;99.90;;;;;;483873;246;28688;-72
2021/08/20 02:32:12;;;;;;;4.80;3.60;;;16.20;99.90;;;;;;483876;246;28720;-71
2021/08/20 02:34:13;;;;;;;3.83;3.53;;;16.20;99.90;;;;;;483849;246;28775;-71
2021/08/20 02:36:14;;;;;;;4.43;3.77;;;16.20;99.90;;;;;;483832;246;28729;-71
2021/08/20 02:38:16;;;;;;;3.37;3.07;;;16.20;99.90;;;;;;483833;246;29391;-72
2021/08/20 02:40:17;;;;;;;4.03;3.63;;;16.20;99.90;;;;;;483872;246;29270;-69
2021/08/20 02:42:18;;;;;;;4.13;3.23;;;16.20;99.90;;;;;;483822;246;29198;-69
2021/08/20 02:44:20;;;;;;;3.90;3.60;;;16.20;99.90;;;;;;483866;246;29147;-69
2021/08/20 02:46:21;;;;;;;3.43;3.13;;;16.20;99.90;;;;;;483836;246;28824;-69
2021/08/20 02:48:22;;;;;;;4.10;3.70;;;16.20;99.90;;;;;;483850;246;28749;-70
2021/08/20 02:50:23;;;;;;;4.10;3.80;;;16.20;99.90;;;;;;483853;246;28748;-70
2021/08/20 02:52:25;;;;;;;4.27;3.87;;;16.20;99.90;;;;;;483849;246;28717;-69
2021/08/20 02:54:26;;;;;;;3.53;3.20;;;16.10;99.90;;;;;;483843;246;28677;-72
2021/08/20 02:56:27;;;;;;;4.03;3.10;;;16.10;99.90;;;;;;483834;246;28736;-71
2021/08/20 02:58:28;;;;;;;4.20;3.80;;;16.10;99.90;;;;;;483847;246;28740;-70
2021/08/20 03:00:29;;;;;;;3.80;3.50;;;16.10;99.90;;;;;;483869;246;28688;-70
2021/08/20 03:02:31;;;;;;;3.60;3.40;;;16.10;99.90;;;;;;483873;246;28789;-70
2021/08/20 03:04:32;;;;;;;3.70;3.40;;;16.20;99.90;;;;;;483839;246;29133;-70
2021/08/20 03:06:34;;;;;;;3.57;3.27;;;16.10;99.90;;;;;;483848;246;29367;-70
2021/08/20 03:08:34;;;;;;;3.60;3.30;;;16.10;99.90;;;;;;483861;246;29259;-70
2021/08/20 03:10:36;;;;;;;4.00;3.70;;;16.10;99.90;;;;;;483862;246;28788;-70
2021/08/20 03:12:37;;;;;;;3.87;3.57;;;16.10;99.90;;;;;;483781;246;28723;-70
2021/08/20 03:14:38;;;;;;;4.33;3.93;;;16.10;99.90;;;;;;483859;246;28791;-70
2021/08/20 03:16:39;;;;;;;3.80;3.40;;;16.10;99.90;;;;;;483873;246;28819;-69
2021/08/20 03:18:41;;;;;;;3.40;3.20;;;16.10;99.90;;;;;;483867;246;28704;-70
2021/08/20 03:20:42;;;;;;;4.33;4.00;;;16.00;99.90;;;;;;483885;246;28827;-70
2021/08/20 03:22:43;;;;;;;4.47;4.07;;;16.00;99.90;;;;;;483850;246;28731;-70
2021/08/20 03:24:44;;;;;;;4.23;3.90;;;16.00;99.90;;;;;;483862;246;28799;-71
2021/08/20 03:26:46;;;;;;;3.83;3.53;;;15.90;99.90;;;;;;483867;246;28735;-70
2021/08/20 03:28:47;;;;;;;3.90;3.60;;;15.90;99.90;;;;;;483863;246;30080;-72
2021/08/20 03:30:48;;;;;;;4.30;3.90;;;15.90;99.90;;;;;;483852;246;29213;-70
2021/08/20 03:32:49;;;;;;;4.60;3.77;;;15.90;99.90;;;;;;483727;246;29174;-69
2021/08/20 03:34:52;;;;;;;6.93;4.03;;;15.90;99.90;;;;;;483811;246;28678;-70
2021/08/20 03:36:52;;;;;;;5.10;3.70;;;15.80;99.90;;;;;;483793;246;28752;-70
2021/08/20 03:38:53;;;;;;;4.23;3.83;;;15.80;99.90;;;;;;483832;246;28704;-69
2021/08/20 03:40:54;;;;;;;4.30;3.90;;;15.70;99.90;;;;;;483862;246;28765;-69
2021/08/20 03:42:56;;;;;;;4.40;4.00;;;15.80;99.90;;;;;;483831;246;28724;-70
2021/08/20 03:44:57;;;;;;;4.20;3.90;;;15.80;99.90;;;;;;483845;246;28743;-72
2021/08/20 03:46:58;;;;;;;4.47;3.80;;;15.80;99.90;;;;;;483841;246;28850;-71
2021/08/20 03:49:00;;;;;;;4.40;4.00;;;15.90;99.90;;;;;;483850;246;28718;-72
2021/08/20 03:51:01;;;;;;;4.90;3.93;;;15.80;99.90;;;;;;483876;246;28796;-72
2021/08/20 03:53:02;;;;;;;4.13;3.83;;;15.80;99.90;;;;;;483845;246;29184;-71
2021/08/20 03:55:03;;;;;;;4.57;4.17;;;15.80;99.90;;;;;;483861;246;29141;-71
2021/08/20 03:57:05;;;;;;;4.63;4.23;;;15.90;99.90;;;;;;483844;246;29249;-71
2021/08/20 03:59:06;;;;;;;5.57;4.70;;;15.90;99.90;;;;;;483847;246;28834;-71
2021/08/20 04:01:07;;;;;;;4.80;4.30;;;15.80;99.90;;;;;;483854;246;28854;-71
2021/08/20 04:03:08;;;;;;;4.90;4.40;;;15.80;99.90;;;;;;483863;246;28753;-71
2021/08/20 04:05:10;;;;;;;4.40;4.00;;;15.80;99.90;;;;;;483824;246;28683;-71
2021/08/20 04:07:14;;;;;;;4.43;4.03;;;15.80;99.90;;;;;;483830;246;28822;-70
2021/08/20 04:09:12;;;;;;;4.27;3.90;;;15.80;99.90;;;;;;483642;246;29141;-71
2021/08/20 04:11:13;;;;;;;4.67;4.17;;;15.80;99.90;;;;;;483855;246;28696;-71
2021/08/20 04:13:15;;;;;;;4.60;4.20;;;15.80;99.90;;;;;;483831;246;28732;-71
2021/08/20 04:15:16;;;;;;;6.57;4.70;;;15.80;99.90;;;;;;483845;246;28688;-71
2021/08/20 04:17:17;;;;;;;5.40;4.90;;;15.80;99.90;;;;;;483848;246;29195;-71
2021/08/20 04:19:18;;;;;;;5.30;4.67;;;15.80;99.90;;;;;;483821;246;29254;-71
2021/08/20 04:21:20;;;;;;;4.47;3.90;;;15.80;99.90;;;;;;483847;246;29150;-72
2021/08/20 04:23:21;;;;;;;4.80;4.40;;;15.80;99.90;;;;;;483846;246;29199;-70
2021/08/20 04:25:22;;;;;;;4.30;3.97;;;15.80;99.90;;;;;;483838;246;28685;-71
2021/08/20 04:27:23;;;;;;;4.23;3.83;;;15.80;99.90;;;;;;483852;246;28830;-71
2021/08/20 04:29:25;;;;;;;5.07;4.67;;;15.70;99.90;;;;;;483891;246;28709;-71
2021/08/20 04:31:26;;;;;;;4.47;4.07;;;15.70;99.90;;;;;;483885;246;28688;-71
2021/08/20 04:33:27;;;;;;;5.10;4.00;;;15.70;99.90;;;;;;483887;246;28740;-71
2021/08/20 04:35:28;;;;;;;5.33;4.40;;;15.70;99.90;;;;;;483858;246;28774;-71
2021/08/20 04:37:30;;;;;;;4.93;4.50;;;15.70;99.90;;;;;;483873;246;28738;-71
2021/08/20 04:39:31;;;;;;;4.70;4.30;;;15.60;99.90;;;;;;483887;246;28811;-71
2021/08/20 04:41:32;;;;;;;5.00;4.50;;;15.70;99.90;;;;;;483907;246;29374;-71
2021/08/20 04:43:33;;;;;;;4.73;4.23;;;15.70;99.90;;;;;;483899;246;29200;-71
2021/08/20 04:45:35;;;;;;;5.00;4.47;;;15.60;99.90;;;;;;483912;246;29369;-71
2021/08/20 04:47:36;;;;;;;4.70;4.30;;;15.60;99.90;;;;;;483893;246;29211;-70
2021/08/20 04:49:37;;;;;;;4.30;4.00;;;15.60;99.90;;;;;;483891;246;28744;-71
2021/08/20 04:51:38;;;;;;;4.10;3.77;;;15.60;99.90;;;;;;483904;246;28692;-71
2021/08/20 04:53:40;;;;;;;4.50;4.10;;;15.60;99.90;;;;;;483863;246;28712;-70
2021/08/20 04:55:41;;;;;;;4.00;3.63;;;15.60;99.90;;;;;;483865;246;28783;-72
2021/08/20 04:57:42;;;;;;;4.43;4.00;;;15.70;99.90;;;;;;483885;246;28827;-71
2021/08/20 04:59:43;;;;;;;5.10;4.50;;;15.60;99.90;;;;;;483933;246;29123;-72
2021/08/20 05:01:45;;;;;;;4.10;3.73;;;15.70;99.90;;;;;;483898;246;28688;-69
2021/08/20 05:03:46;;;;;;;4.50;4.10;;;15.70;99.90;;;;;;483872;246;28790;-70
2021/08/20 05:05:47;;;;;;;4.00;3.70;;;15.70;99.90;;;;;;483859;246;29270;-72
2021/08/20 05:07:48;;;;;;;4.57;4.07;;;15.70;99.90;;;;;;483861;246;29186;-71
2021/08/20 05:09:50;;;;;;;4.80;4.30;;;15.60;99.90;;;;;;483908;246;29242;-71
2021/08/20 05:11:51;;;;;;;5.13;4.73;;;15.70;99.90;;;;;;483867;246;29218;-70
2021/08/20 05:13:52;;;;;;;4.90;4.40;;;15.70;99.90;;;;;;483859;246;28822;-72
2021/08/20 05:15:53;;;;;;;4.23;3.83;;;15.70;99.90;;;;;;483874;246;28735;-70
2021/08/20 05:17:55;;;;;;;5.00;4.60;;;15.70;99.90;;;;;;483875;246;28728;-72
2021/08/20 05:19:56;;;;;;;4.37;3.97;;;15.70;99.90;;;;;;483884;246;28688;-69
2021/08/20 05:21:57;;;;;;;4.73;4.27;;;15.70;99.90;;;;;;483876;246;28740;-71
2021/08/20 05:23:58;;;;;;;6.33;4.57;;;15.70;99.90;;;;;;483846;246;28815;-72
2021/08/20 05:26:00;;;;;;;4.60;4.20;;;15.70;99.90;;;;;;483839;246;28894;-72
2021/08/20 05:28:02;;;;;;;4.27;3.97;;;15.70;99.90;;;;;;483837;246;28692;-69
2021/08/20 05:30:02;;;;;;;4.50;4.10;;;15.80;99.90;;;;;;483821;246;28807;-71
2021/08/20 05:32:03;;;;;;;5.33;4.27;;;15.70;99.90;;;;;;483856;246;29156;-72
2021/08/20 05:34:05;;;;;;;4.00;3.70;;;15.80;99.90;;;;;;483845;246;29412;-71
2021/08/20 05:36:06;;;;;;;4.13;3.83;;;15.80;99.90;;;;;;483857;246;29128;-69
2021/08/20 05:38:07;;;;;;;4.60;4.10;;;15.80;99.90;;;;;;483881;246;28720;-71
2021/08/20 05:40:08;;;;;;;4.33;3.93;;;15.80;99.90;;;;;;483789;246;28743;-69
2021/08/20 05:42:10;;;;;;;3.93;3.63;;;15.80;99.90;;;;;;483835;246;28775;-72
2021/08/20 05:44:11;;;;;;;4.10;3.80;;;15.70;99.90;;;;;;483811;246;28764;-72
2021/08/20 05:46:12;;;;;;;4.50;4.10;;;15.80;99.90;;;;;;483859;246;28803;-71
2021/08/20 05:48:13;;;;;;;4.37;4.00;;;15.70;99.90;;;;;;483879;246;28715;-69
2021/08/20 05:50:15;;;;;;;4.80;3.80;;;15.70;99.90;;;;;;483854;246;28803;-69
2021/08/20 05:52:16;;;;;;;4.33;4.03;;;15.70;99.90;;;;;;483888;246;28831;-69
2021/08/20 05:54:17;;;;;;;4.93;4.53;;;15.70;99.90;;;;;;483853;246;28836;-71
2021/08/20 05:56:18;;;;;;;4.00;3.70;;;15.70;99.90;;;;;;483868;246;29758;-72
2021/08/20 05:58:20;;;;;;;4.33;4.00;;;15.80;99.90;;;;;;483860;246;29216;-71
2021/08/20 06:00:21;;;;;;;4.87;4.33;;;15.80;99.90;;;;;;483861;246;29226;-71
2021/08/20 06:02:22;;;;;;;3.93;3.60;;;15.80;99.90;;;;;;483836;246;28688;-69
2021/08/20 06:04:23;;;;;;;4.67;3.97;;;15.80;99.90;;;;;;483847;246;28747;-72
2021/08/20 06:06:26;;;;;;;6.07;4.00;;;15.90;99.90;;;;;;483881;246;28808;-69
2021/08/20 06:08:26;;;;;;;4.60;4.13;;;15.80;99.90;;;;;;483835;246;28764;-69
2021/08/20 06:10:27;;;;;;;4.33;4.03;;;15.90;99.90;;;;;;483879;246;28756;-69
2021/08/20 06:12:30;;;;;;;3.90;3.60;;;15.90;99.90;;;;;;483853;246;28692;-70
2021/08/20 06:14:30;;;;;;;4.10;3.70;;;16.00;99.90;;;;;;483694;246;28842;-69
2021/08/20 06:16:31;;;;;;;4.30;3.90;;;16.00;99.90;;;;;;483856;246;28724;-69
2021/08/20 06:18:32;;;;;;;4.07;3.77;;;16.00;99.90;;;;;;483851;246;28779;-70
2021/08/20 06:20:33;;;;;;;4.13;3.83;;;15.90;99.90;;;;;;483854;246;29236;-70
2021/08/20 06:22:35;;;;;;;4.80;3.70;;;16.00;99.90;;;;;;483836;246;29167;-71
2021/08/20 06:24:36;;;;;;;3.80;3.50;;;15.90;99.90;;;;;;483876;246;29239;-71
2021/08/20 06:26:37;;;;;;;4.57;4.17;;;15.90;99.90;;;;;;483897;246;28720;-72
2021/08/20 06:28:38;;;;;;;4.10;3.80;;;16.00;99.90;;;;;;483883;246;28696;-71
2021/08/20 06:30:45;;;;;;;4.00;3.67;;;15.90;99.90;;;;;;483881;246;28805;-72
2021/08/20 06:32:41;;;;;;;4.17;3.87;;;15.90;99.90;;;;;;483453;246;28688;-71
2021/08/20 06:34:42;;;;;;;3.47;3.17;;;15.90;99.90;;;;;;483854;246;28706;-71
2021/08/20 06:36:43;;;;;;;4.13;3.77;;;16.00;99.90;;;;;;483874;246;28838;-72
2021/08/20 06:38:45;;;;;;;4.27;3.87;;;16.00;99.90;;;;;;483875;246;28694;-71
2021/08/20 06:40:46;;;;;;;3.50;3.20;;;16.00;99.90;;;;;;483851;246;28826;-72
2021/08/20 06:42:47;;;;;;;4.20;3.80;;;16.00;99.90;;;;;;483885;246;28748;-72
2021/08/20 06:44:48;;;;;;;4.97;3.57;;;16.10;99.90;;;;;;483845;246;29166;-71
2021/08/20 06:46:50;;;;;;;3.90;3.60;;;16.10;99.90;;;;;;483885;246;29198;-71
2021/08/20 06:48:51;;;;;;;4.00;3.70;;;16.20;99.90;;;;;;483853;246;29123;-71
2021/08/20 06:50:53;;;;;;;3.73;3.30;;;16.20;99.90;;;;;;483800;246;29282;-70
2021/08/20 06:52:53;;;;;;;3.17;2.97;;;16.20;99.90;;;;;;483856;246;28775;-72
2021/08/20 06:54:55;;;;;;;3.30;3.00;;;16.20;99.90;;;;;;483866;246;28787;-71
2021/08/20 06:56:56;;;;;;;3.23;3.03;;;16.20;99.90;;;;;;483880;246;28829;-72
2021/08/20 06:58:57;;;;;;;3.30;3.10;;;16.10;99.90;;;;;;483860;246;28728;-71
2021/08/20 07:00:58;;;;;;;3.60;3.30;;;16.20;99.90;;;;;;483845;246;28875;-71
2021/08/20 07:03:00;;;;;;;3.40;3.10;;;16.20;99.90;;;;;;483851;246;28799;-69
2021/08/20 07:05:01;;;;;;;3.90;3.60;;;16.20;99.90;;;;;;483818;246;28799;-72
2021/08/20 07:07:02;;;;;;;3.30;3.03;;;16.20;99.90;;;;;;483857;246;28712;-72
2021/08/20 07:09:03;;;;;;;3.63;3.33;;;16.20;99.90;;;;;;483856;243;28701;-72
2021/08/20 07:11:05;;;;;;;3.30;3.10;;;16.20;99.90;;;;;;483846;246;29282;-71
2021/08/20 07:13:06;;;;;;;4.27;3.57;;;16.20;99.90;;;;;;483829;246;29225;-71
2021/08/20 07:15:07;;;;;;;3.90;3.57;;;16.30;99.90;;;;;;483851;246;29202;-71
2021/08/20 07:17:08;;;;;;;3.60;3.30;;;16.30;99.90;;;;;;483870;246;28809;-72
2021/08/20 07:19:10;;;;;;;3.30;3.10;;;16.30;99.90;;;;;;483859;246;28788;-72
2021/08/20 07:21:11;;;;;;;3.37;3.17;;;16.40;99.90;;;;;;483844;243;28833;-71
2021/08/20 07:23:12;;;;;;;4.03;2.90;;;16.40;99.90;;;;;;483856;246;28783;-69
2021/08/20 07:25:13;;;;;;;3.63;3.23;;;16.50;99.90;;;;;;483859;246;28700;-69
2021/08/20 07:27:15;;;;;;;3.00;2.80;;;16.60;99.90;;;;;;483852;246;28744;-72
2021/08/20 07:29:16;;;;;;;3.90;3.60;;;16.60;99.90;;;;;;483853;246;28695;-71
2021/08/20 07:31:17;;;;;;;5.43;3.40;;;16.60;99.90;;;;;;483853;246;28739;-69
2021/08/20 07:33:18;;;;;;;3.63;3.33;;;16.60;99.90;;;;;;483827;246;28720;-71
2021/08/20 07:35:20;;;;;;;3.47;3.00;;;16.60;99.90;;;;;;483851;246;29140;-71
2021/08/20 07:37:21;;;;;;;4.17;3.33;;;16.70;99.90;;;;;;483837;246;29270;-71
2021/08/20 07:39:26;;;;;;;3.90;3.53;;;16.70;99.90;;;;;;483867;246;29163;-69
2021/08/20 07:41:23;;;;;;;4.60;3.60;;;16.70;99.90;;;;;;483591;246;28728;-70
2021/08/20 07:43:25;;;;;;;3.50;3.20;;;16.70;99.90;;;;;;483860;246;28913;-70
2021/08/20 07:45:26;;;;;;;3.33;3.03;;;16.80;99.90;;;;;;483862;246;28688;-70
2021/08/20 07:47:27;;;;;;;3.50;2.77;;;16.80;99.90;;;;;;483829;246;28719;-71
2021/08/20 07:49:32;;;;;;;3.00;2.80;;;16.90;99.90;;;;;;483866;246;28779;-72
2021/08/20 07:51:30;;;;;;;2.90;2.70;;;16.90;99.90;;;;;;483381;246;28727;-70
2021/08/20 07:53:31;;;;;;;3.30;3.00;;;16.90;99.90;;;;;;483855;246;28770;-70
2021/08/20 07:55:33;;;;;;;4.23;3.07;;;16.90;99.90;;;;;;483888;246;28786;-70
2021/08/20 07:57:33;;;;;;;2.97;2.77;;;17.00;99.90;;;;;;483811;246;28772;-70
2021/08/20 07:59:35;;;;;;;2.90;2.70;;;17.00;99.90;;;;;;483856;246;29131;-70
2021/08/20 08:01:36;;;;;;;2.80;2.60;;;17.10;99.90;;;;;;483866;246;29305;-70
2021/08/20 08:03:38;;;;;;;4.17;2.80;;;17.10;99.90;;;;;;483868;246;29529;-70
2021/08/20 08:05:39;;;;;;;2.63;2.50;;;17.10;99.90;;;;;;483831;246;28692;-70
2021/08/20 08:07:40;;;;;;;3.57;3.27;;;17.20;99.90;;;;;;483656;246;28823;-68
2021/08/20 08:09:42;;;;;;;3.00;2.40;;;;;;;;;;483651;246;28763;-72
2021/08/20 08:11:43;;;;;;;2.87;2.67;;;17.20;99.90;;;;;;483880;246;27382;-71
2021/08/20 08:13:44;;;;;;;2.87;2.57;;;17.30;99.90;;;;;;483811;246;29198;-71
2021/08/20 08:15:46;;;;;;;3.00;2.80;;;17.40;99.90;;;;;;483833;246;29238;-71
2021/08/20 08:17:47;;;;;;;3.33;3.13;;;17.30;99.90;;;;;;483831;246;29125;-70
2021/08/20 08:19:51;;;;;;;3.23;2.97;;;;;;;;;;483805;246;29227;-70
2021/08/20 08:21:52;;;;;;;2.90;2.70;;;17.40;99.90;;;;;;483849;246;26352;-72
2021/08/20 08:23:53;;;;;;;2.93;2.70;;;17.50;99.90;;;;;;483829;246;29282;-70
2021/08/20 08:25:54;;;;;;;3.40;3.10;;;17.40;99.90;;;;;;483835;246;29205;-72
2021/08/20 08:27:56;;;;;;;2.90;2.70;;;17.50;99.90;;;;;;483789;246;29193;-71
2021/08/20 08:29:57;;;;;;;3.03;2.40;;;17.50;99.90;;;;;;483824;246;28810;-72
2021/08/20 08:31:58;;;;;;;2.80;2.23;;;17.60;99.90;;;;;;483881;246;28813;-72
2021/08/20 08:33:59;;;;;;;2.83;2.63;;;17.60;99.90;;;;;;483878;246;28681;-70
2021/08/20 08:36:00;;;;;;;3.40;2.30;;;17.60;99.90;;;;;;483865;246;28758;-70
2021/08/20 08:38:02;;;;;;;2.30;2.17;;;17.70;99.90;;;;;;483850;246;28751;-70
2021/08/20 08:40:03;;;;;;;2.53;2.33;;;17.80;99.90;;;;;;483844;246;28810;-70
2021/08/20 08:42:04;;;;;;;3.10;2.67;;;17.90;99.90;;;;;;483870;246;29155;-71
2021/08/20 08:44:05;;;;;;;2.73;2.53;;;17.90;99.90;;;;;;483863;246;28692;-70
2021/08/20 08:46:12;;;;;;;2.70;2.50;;;18.00;99.90;;;;;;483872;246;29202;-71
2021/08/20 08:48:11;;;;;;;2.70;2.50;;;18.00;99.90;;;;;;483710;246;28722;-69
2021/08/20 08:50:12;;;;;;;2.67;2.47;;;17.90;99.90;;;;;;483821;246;28778;-69
2021/08/20 08:52:13;;;;;;;2.30;2.13;;;17.90;99.90;;;;;;483848;246;29194;-71
2021/08/20 08:54:15;;;;;;;2.27;2.07;;;18.00;99.90;;;;;;483872;246;29191;-72
2021/08/20 08:56:16;;;;;;;2.43;2.23;;;18.00;99.90;;;;;;483877;246;29167;-70
2021/08/20 08:58:17;;;;;;;2.10;2.00;;;18.10;99.90;;;;;;483847;246;29269;-71
2021/08/20 09:00:18;;;;;;;2.67;2.47;;;18.10;99.90;;;;;;483850;246;28804;-71
2021/08/20 09:02:20;;;;;;;3.13;2.00;;;18.20;99.90;;;;;;483828;246;28721;-72
2021/08/20 09:04:24;;;;;;;2.67;2.47;;;18.30;99.90;;;;;;483887;246;28739;-72
2021/08/20 09:06:25;;;;;;;2.13;1.97;;;18.50;99.90;;;;;;483853;246;28722;-71
2021/08/20 09:08:29;;;;;;;2.20;1.90;;;18.40;99.90;;;;;;483854;246;28765;-71
2021/08/20 09:10:30;;;;;;;2.10;1.93;;;18.40;99.90;;;;;;483831;246;28690;-71
2021/08/20 09:12:32;;;;;;;2.27;2.17;;;18.30;99.90;;;;;;483855;246;28726;-72
2021/08/20 09:14:33;;;;;;;2.00;1.90;;;18.40;99.90;;;;;;483854;246;28726;-70
2021/08/20 09:16:34;;;;;;;2.60;2.00;;;18.40;99.90;;;;;;483888;246;28892;-70
2021/08/20 09:18:36;;;;;;;2.10;2.00;;;18.40;99.90;;;;;;483888;246;28744;-70
2021/08/20 09:20:37;;;;;;;2.00;1.90;;;18.40;99.90;;;;;;483853;246;28722;-71
2021/08/20 09:22:38;;;;;;;1.80;1.70;;;18.30;99.90;;;;;;483878;246;28800;-71
2021/08/20 09:24:39;;;;;;;1.90;1.80;;;18.50;99.90;;;;;;483865;246;28806;-70
2021/08/20 09:26:40;;;;;;;1.80;1.70;;;18.70;99.90;;;;;;483856;246;28714;-69
2021/08/20 09:28:42;;;;;;;1.77;1.67;;;18.80;99.90;;;;;;483840;246;29288;-71
2021/08/20 09:30:43;;;;;;;2.17;2.07;;;18.70;99.90;;;;;;483863;246;29134;-70
2021/08/20 09:32:44;;;;;;;1.90;1.80;;;18.70;99.90;;;;;;483839;246;29163;-71
2021/08/20 09:34:45;;;;;;;2.00;1.90;;;18.70;99.90;;;;;;483873;246;28726;-71
2021/08/20 09:36:48;;;;;;;2.00;1.90;;;18.70;99.90;;;;;;483868;246;28749;-71
2021/08/20 09:38:49;;;;;;;2.10;2.00;;;18.90;99.90;;;;;;483829;246;28804;-71
2021/08/20 09:40:55;;;;;;;1.70;1.60;;;18.70;99.90;;;;;;483733;246;28666;-71
2021/08/20 09:42:54;;;;;;;2.00;1.90;;;18.80;99.90;;;;;;483527;246;28714;-72
2021/08/20 09:44:55;;;;;;;1.80;1.70;;;18.90;99.90;;;;;;483877;246;28685;-71
2021/08/20 09:46:56;;;;;;;2.10;1.90;;;18.90;99.90;;;;;;483876;246;28793;-71
2021/08/20 09:48:57;;;;;;;2.40;2.20;;;19.00;99.90;;;;;;483885;246;28690;-71
2021/08/20 09:50:59;;;;;;;2.33;2.13;;;19.00;99.90;;;;;;483863;246;28727;-71
2021/08/20 09:53:00;;;;;;;2.40;2.30;;;18.80;99.90;;;;;;483883;246;28721;-71
2021/08/20 09:55:01;;;;;;;2.30;2.20;;;18.80;99.90;;;;;;483885;246;29145;-72
2021/08/20 09:57:02;;;;;;;2.33;2.13;;;18.90;99.90;;;;;;483864;246;29308;-70
2021/08/20 09:59:04;;;;;;;2.40;2.23;;;19.00;99.90;;;;;;483882;246;29137;-71
2021/08/20 10:01:05;;;;;;;2.10;2.00;;;19.10;99.90;;;;;;483896;246;28760;-71
2021/08/20 10:03:06;;;;;;;2.37;2.27;;;19.20;99.90;;;;;;483886;246;28805;-72
2021/08/20 10:05:07;;;;;;;2.60;2.40;;;19.40;99.90;;;;;;483897;246;28682;-71
2021/08/20 10:07:09;;;;;;;2.10;2.00;;;19.40;99.90;;;;;;483892;246;28723;-71
2021/08/20 10:09:10;;;;;;;2.40;2.20;;;19.40;99.90;;;;;;483902;246;28761;-71
2021/08/20 10:11:11;;;;;;;2.40;2.23;;;19.30;99.90;;;;;;483869;246;28773;-71
2021/08/20 10:13:12;;;;;;;2.10;2.00;;;19.20;99.90;;;;;;483917;246;28810;-72
2021/08/20 10:15:14;;;;;;;2.10;2.00;;;19.30;99.90;;;;;;483866;246;28690;-71
2021/08/20 10:17:16;;;;;;;2.50;2.40;;;19.50;99.90;;;;;;483863;246;28753;-71
2021/08/20 10:19:16;;;;;;;2.23;2.13;;;19.70;99.90;;;;;;483826;246;29345;-71
2021/08/20 10:21:17;;;;;;;1.87;1.77;;;19.80;99.90;;;;;;483856;246;29143;-71
2021/08/20 10:23:19;;;;;;;2.50;2.30;;;19.80;99.90;;;;;;483870;246;29232;-71
2021/08/20 10:25:20;;;;;;;2.30;2.20;;;19.80;99.90;;;;;;483829;246;29137;-72
2021/08/20 10:27:21;;;;;;;2.20;2.10;;;19.80;99.90;;;;;;483843;246;28730;-71
2021/08/20 10:29:22;;;;;;;2.20;2.10;;;19.90;99.90;;;;;;483849;246;28718;-71
2021/08/20 10:31:24;;;;;;;2.23;2.13;;;20.00;99.90;;;;;;483873;246;28697;-72